sensor_id;sensor_type;location;lat;lon;timestamp;P1;durP1;ratioP1;P2;durP2;ratioP2
9815;SDS011;4947;44.526;11.360;2022-12-29T00:00:12;95.72;;;37.90;;
9815;SDS011;4947;44.526;11.360;2022-12-29T00:02:42;78.63;;;36.72;;
9815;SDS011;4947;44.526;11.360;2022-12-29T00:05:11;84.88;;;37.88;;
9815;SDS011;4947;44.526;11.360;2022-12-29T00:07:38;89.32;;;37.58;;
9815;SDS011;4947;44.526;11.360;2022-12-29T00:10:06;91.30;;;37.60;;
9815;SDS011;4947;44.526;11.360;2022-12-29T00:12:34;88.70;;;37.22;;
9815;SDS011;4947;44.526;11.360;2022-12-29T00:15:18;85.15;;;37.30;;
9815;SDS011;4947;44.526;11.360;2022-12-29T00:18:05;84.95;;;35.90;;
9815;SDS011;4947;44.526;11.360;2022-12-29T00:20:34;95.20;;;39.20;;
9815;SDS011;4947;44.526;11.360;2022-12-29T00:23:18;112.82;;;41.75;;
9815;SDS011;4947;44.526;11.360;2022-12-29T00:26:03;86.00;;;37.30;;
9815;SDS011;4947;44.526;11.360;2022-12-29T00:28:47;89.88;;;39.53;;
9815;SDS011;4947;44.526;11.360;2022-12-29T00:31:33;88.85;;;36.97;;
9815;SDS011;4947;44.526;11.360;2022-12-29T00:34:19;87.72;;;35.20;;
9815;SDS011;4947;44.526;11.360;2022-12-29T00:37:12;78.22;;;36.50;;
9815;SDS011;4947;44.526;11.360;2022-12-29T00:39:41;92.82;;;36.65;;
9815;SDS011;4947;44.526;11.360;2022-12-29T00:42:26;85.65;;;36.72;;
9815;SDS011;4947;44.526;11.360;2022-12-29T00:45:07;78.45;;;35.25;;
9815;SDS011;4947;44.526;11.360;2022-12-29T00:47:38;81.18;;;37.17;;
9815;SDS011;4947;44.526;11.360;2022-12-29T00:50:07;87.63;;;36.22;;
9815;SDS011;4947;44.526;11.360;2022-12-29T00:52:33;87.85;;;36.70;;
9815;SDS011;4947;44.526;11.360;2022-12-29T00:55:00;97.90;;;38.03;;
9815;SDS011;4947;44.526;11.360;2022-12-29T00:57:28;91.40;;;35.72;;
9815;SDS011;4947;44.526;11.360;2022-12-29T00:59:55;87.45;;;36.00;;
9815;SDS011;4947;44.526;11.360;2022-12-29T01:02:22;86.75;;;37.08;;
9815;SDS011;4947;44.526;11.360;2022-12-29T01:04:49;89.22;;;37.88;;
9815;SDS011;4947;44.526;11.360;2022-12-29T01:07:18;96.00;;;38.60;;
9815;SDS011;4947;44.526;11.360;2022-12-29T01:09:48;94.57;;;38.30;;
9815;SDS011;4947;44.526;11.360;2022-12-29T01:12:33;80.22;;;36.17;;
9815;SDS011;4947;44.526;11.360;2022-12-29T01:15:11;89.90;;;38.20;;
9815;SDS011;4947;44.526;11.360;2022-12-29T01:17:40;91.25;;;38.47;;
9815;SDS011;4947;44.526;11.360;2022-12-29T01:20:08;88.30;;;36.42;;
9815;SDS011;4947;44.526;11.360;2022-12-29T01:22:37;88.18;;;37.90;;
9815;SDS011;4947;44.526;11.360;2022-12-29T01:25:06;78.25;;;36.17;;
9815;SDS011;4947;44.526;11.360;2022-12-29T01:27:35;86.35;;;35.97;;
9815;SDS011;4947;44.526;11.360;2022-12-29T01:30:03;83.15;;;36.38;;
9815;SDS011;4947;44.526;11.360;2022-12-29T01:32:30;89.35;;;35.65;;
9815;SDS011;4947;44.526;11.360;2022-12-29T01:34:58;104.28;;;39.22;;
9815;SDS011;4947;44.526;11.360;2022-12-29T01:37:25;81.05;;;37.28;;
9815;SDS011;4947;44.526;11.360;2022-12-29T01:39:54;78.15;;;36.63;;
9815;SDS011;4947;44.526;11.360;2022-12-29T01:42:23;82.45;;;35.38;;
9815;SDS011;4947;44.526;11.360;2022-12-29T01:44:52;91.53;;;38.30;;
9815;SDS011;4947;44.526;11.360;2022-12-29T01:47:26;96.63;;;39.10;;
9815;SDS011;4947;44.526;11.360;2022-12-29T01:50:11;89.95;;;37.10;;
9815;SDS011;4947;44.526;11.360;2022-12-29T01:52:43;86.07;;;37.33;;
9815;SDS011;4947;44.526;11.360;2022-12-29T01:55:17;90.72;;;36.65;;
9815;SDS011;4947;44.526;11.360;2022-12-29T01:57:46;97.00;;;38.60;;
9815;SDS011;4947;44.526;11.360;2022-12-29T02:00:18;92.78;;;39.28;;
9815;SDS011;4947;44.526;11.360;2022-12-29T02:02:46;96.07;;;38.17;;
9815;SDS011;4947;44.526;11.360;2022-12-29T02:05:21;81.90;;;35.80;;
9815;SDS011;4947;44.526;11.360;2022-12-29T02:07:53;104.18;;;37.58;;
9815;SDS011;4947;44.526;11.360;2022-12-29T02:10:23;90.22;;;36.13;;
9815;SDS011;4947;44.526;11.360;2022-12-29T02:12:53;101.07;;;40.28;;
9815;SDS011;4947;44.526;11.360;2022-12-29T02:15:20;92.63;;;40.28;;
9815;SDS011;4947;44.526;11.360;2022-12-29T02:18:01;98.95;;;40.35;;
9815;SDS011;4947;44.526;11.360;2022-12-29T02:29:51;85.70;;;36.88;;
9815;SDS011;4947;44.526;11.360;2022-12-29T02:32:31;94.35;;;38.70;;
9815;SDS011;4947;44.526;11.360;2022-12-29T02:35:07;85.32;;;36.97;;
9815;SDS011;4947;44.526;11.360;2022-12-29T02:37:40;91.40;;;39.70;;
9815;SDS011;4947;44.526;11.360;2022-12-29T02:40:24;99.65;;;38.67;;
9815;SDS011;4947;44.526;11.360;2022-12-29T02:43:01;91.63;;;38.80;;
9815;SDS011;4947;44.526;11.360;2022-12-29T02:45:34;97.22;;;38.10;;
9815;SDS011;4947;44.526;11.360;2022-12-29T02:48:09;103.75;;;39.72;;
9815;SDS011;4947;44.526;11.360;2022-12-29T02:50:43;88.40;;;37.47;;
9815;SDS011;4947;44.526;11.360;2022-12-29T02:53:15;85.95;;;36.13;;
9815;SDS011;4947;44.526;11.360;2022-12-29T02:56:05;90.40;;;38.08;;
9815;SDS011;4947;44.526;11.360;2022-12-29T02:58:31;87.10;;;37.60;;
9815;SDS011;4947;44.526;11.360;2022-12-29T03:01:03;87.68;;;38.30;;
9815;SDS011;4947;44.526;11.360;2022-12-29T03:03:52;104.88;;;39.67;;
9815;SDS011;4947;44.526;11.360;2022-12-29T03:06:32;93.85;;;37.53;;
9815;SDS011;4947;44.526;11.360;2022-12-29T03:09:10;90.70;;;37.15;;
9815;SDS011;4947;44.526;11.360;2022-12-29T03:11:46;94.80;;;39.30;;
9815;SDS011;4947;44.526;11.360;2022-12-29T03:14:36;104.88;;;38.30;;
9815;SDS011;4947;44.526;11.360;2022-12-29T03:17:35;101.53;;;38.80;;
9815;SDS011;4947;44.526;11.360;2022-12-29T03:20:13;112.00;;;41.10;;
9815;SDS011;4947;44.526;11.360;2022-12-29T03:22:44;104.28;;;41.85;;
9815;SDS011;4947;44.526;11.360;2022-12-29T03:25:17;106.28;;;40.28;;
9815;SDS011;4947;44.526;11.360;2022-12-29T03:27:49;90.40;;;41.13;;
9815;SDS011;4947;44.526;11.360;2022-12-29T03:30:19;118.70;;;43.03;;
9815;SDS011;4947;44.526;11.360;2022-12-29T03:32:48;100.10;;;41.95;;
9815;SDS011;4947;44.526;11.360;2022-12-29T03:35:20;99.10;;;42.65;;
9815;SDS011;4947;44.526;11.360;2022-12-29T03:37:52;104.80;;;41.90;;
9815;SDS011;4947;44.526;11.360;2022-12-29T03:40:27;97.80;;;38.72;;
9815;SDS011;4947;44.526;11.360;2022-12-29T03:42:57;102.45;;;41.25;;
9815;SDS011;4947;44.526;11.360;2022-12-29T03:45:25;103.13;;;40.92;;
9815;SDS011;4947;44.526;11.360;2022-12-29T03:47:53;106.13;;;41.17;;
9815;SDS011;4947;44.526;11.360;2022-12-29T03:50:22;102.50;;;43.03;;
9815;SDS011;4947;44.526;11.360;2022-12-29T03:52:50;116.20;;;43.85;;
9815;SDS011;4947;44.526;11.360;2022-12-29T03:55:18;100.20;;;40.92;;
9815;SDS011;4947;44.526;11.360;2022-12-29T03:57:45;101.68;;;40.53;;
9815;SDS011;4947;44.526;11.360;2022-12-29T04:00:13;105.88;;;41.45;;
9815;SDS011;4947;44.526;11.360;2022-12-29T04:02:41;103.00;;;42.83;;
9815;SDS011;4947;44.526;11.360;2022-12-29T04:05:09;103.07;;;42.40;;
9815;SDS011;4947;44.526;11.360;2022-12-29T04:07:38;96.40;;;38.53;;
9815;SDS011;4947;44.526;11.360;2022-12-29T04:10:05;102.30;;;43.13;;
9815;SDS011;4947;44.526;11.360;2022-12-29T04:12:34;103.18;;;41.13;;
9815;SDS011;4947;44.526;11.360;2022-12-29T04:15:02;112.97;;;43.63;;
9815;SDS011;4947;44.526;11.360;2022-12-29T04:17:30;93.63;;;41.65;;
9815;SDS011;4947;44.526;11.360;2022-12-29T04:19:57;98.25;;;40.78;;
9815;SDS011;4947;44.526;11.360;2022-12-29T04:22:40;97.07;;;40.40;;
9815;SDS011;4947;44.526;11.360;2022-12-29T04:25:08;95.28;;;42.88;;
9815;SDS011;4947;44.526;11.360;2022-12-29T04:27:36;92.65;;;38.85;;
9815;SDS011;4947;44.526;11.360;2022-12-29T04:30:04;96.43;;;39.85;;
9815;SDS011;4947;44.526;11.360;2022-12-29T04:32:35;109.85;;;43.42;;
9815;SDS011;4947;44.526;11.360;2022-12-29T04:35:03;98.28;;;40.67;;
9815;SDS011;4947;44.526;11.360;2022-12-29T04:37:31;96.43;;;40.03;;
9815;SDS011;4947;44.526;11.360;2022-12-29T04:40:00;110.32;;;44.13;;
9815;SDS011;4947;44.526;11.360;2022-12-29T04:42:27;119.43;;;45.00;;
9815;SDS011;4947;44.526;11.360;2022-12-29T04:44:55;109.00;;;43.55;;
9815;SDS011;4947;44.526;11.360;2022-12-29T04:47:25;119.70;;;49.10;;
9815;SDS011;4947;44.526;11.360;2022-12-29T04:49:52;110.75;;;43.38;;
9815;SDS011;4947;44.526;11.360;2022-12-29T04:52:20;103.75;;;45.35;;
9815;SDS011;4947;44.526;11.360;2022-12-29T04:54:48;121.68;;;45.53;;
9815;SDS011;4947;44.526;11.360;2022-12-29T04:57:17;107.05;;;45.85;;
9815;SDS011;4947;44.526;11.360;2022-12-29T04:59:44;113.07;;;45.97;;
9815;SDS011;4947;44.526;11.360;2022-12-29T05:02:12;122.28;;;48.08;;
9815;SDS011;4947;44.526;11.360;2022-12-29T05:04:42;112.82;;;48.80;;
9815;SDS011;4947;44.526;11.360;2022-12-29T05:07:09;122.30;;;46.70;;
9815;SDS011;4947;44.526;11.360;2022-12-29T05:09:37;109.85;;;45.83;;
9815;SDS011;4947;44.526;11.360;2022-12-29T05:12:04;115.63;;;46.80;;
9815;SDS011;4947;44.526;11.360;2022-12-29T05:14:35;128.93;;;47.05;;
9815;SDS011;4947;44.526;11.360;2022-12-29T05:17:03;132.48;;;50.83;;
9815;SDS011;4947;44.526;11.360;2022-12-29T05:19:30;130.07;;;48.75;;
9815;SDS011;4947;44.526;11.360;2022-12-29T05:21:58;124.40;;;47.22;;
9815;SDS011;4947;44.526;11.360;2022-12-29T05:24:26;111.13;;;46.38;;
9815;SDS011;4947;44.526;11.360;2022-12-29T05:26:54;115.63;;;48.70;;
9815;SDS011;4947;44.526;11.360;2022-12-29T05:29:21;112.90;;;46.88;;
9815;SDS011;4947;44.526;11.360;2022-12-29T05:31:50;122.13;;;48.22;;
9815;SDS011;4947;44.526;11.360;2022-12-29T05:34:18;117.57;;;45.80;;
9815;SDS011;4947;44.526;11.360;2022-12-29T05:36:46;111.43;;;45.80;;
9815;SDS011;4947;44.526;11.360;2022-12-29T05:39:13;116.18;;;45.95;;
9815;SDS011;4947;44.526;11.360;2022-12-29T05:41:41;119.70;;;46.65;;
9815;SDS011;4947;44.526;11.360;2022-12-29T05:44:09;121.68;;;46.70;;
9815;SDS011;4947;44.526;11.360;2022-12-29T05:46:37;121.72;;;45.28;;
9815;SDS011;4947;44.526;11.360;2022-12-29T05:49:07;127.55;;;47.15;;
9815;SDS011;4947;44.526;11.360;2022-12-29T05:51:34;125.82;;;47.63;;
9815;SDS011;4947;44.526;11.360;2022-12-29T05:54:02;126.70;;;47.33;;
9815;SDS011;4947;44.526;11.360;2022-12-29T05:56:30;112.20;;;45.55;;
9815;SDS011;4947;44.526;11.360;2022-12-29T05:58:57;121.85;;;48.38;;
9815;SDS011;4947;44.526;11.360;2022-12-29T06:01:25;112.72;;;45.97;;
9815;SDS011;4947;44.526;11.360;2022-12-29T06:03:53;121.88;;;48.50;;
9815;SDS011;4947;44.526;11.360;2022-12-29T06:06:22;144.18;;;49.65;;
9815;SDS011;4947;44.526;11.360;2022-12-29T06:08:49;130.02;;;47.40;;
9815;SDS011;4947;44.526;11.360;2022-12-29T06:11:16;130.18;;;47.20;;
9815;SDS011;4947;44.526;11.360;2022-12-29T06:13:44;124.00;;;48.75;;
9815;SDS011;4947;44.526;11.360;2022-12-29T06:16:11;138.18;;;52.03;;
9815;SDS011;4947;44.526;11.360;2022-12-29T06:18:39;131.77;;;49.83;;
9815;SDS011;4947;44.526;11.360;2022-12-29T06:21:06;128.05;;;49.15;;
9815;SDS011;4947;44.526;11.360;2022-12-29T06:23:35;136.10;;;50.28;;
9815;SDS011;4947;44.526;11.360;2022-12-29T06:26:03;119.50;;;47.10;;
9815;SDS011;4947;44.526;11.360;2022-12-29T06:28:31;132.00;;;50.10;;
9815;SDS011;4947;44.526;11.360;2022-12-29T06:30:58;129.98;;;50.55;;
9815;SDS011;4947;44.526;11.360;2022-12-29T06:33:27;125.22;;;48.33;;
9815;SDS011;4947;44.526;11.360;2022-12-29T06:35:55;126.07;;;50.28;;
9815;SDS011;4947;44.526;11.360;2022-12-29T06:38:22;125.68;;;48.42;;
9815;SDS011;4947;44.526;11.360;2022-12-29T06:41:05;124.88;;;47.95;;
9815;SDS011;4947;44.526;11.360;2022-12-29T06:43:32;127.30;;;49.35;;
9815;SDS011;4947;44.526;11.360;2022-12-29T06:46:03;119.93;;;49.08;;
9815;SDS011;4947;44.526;11.360;2022-12-29T06:48:30;137.57;;;50.00;;
9815;SDS011;4947;44.526;11.360;2022-12-29T06:50:58;129.25;;;50.75;;
9815;SDS011;4947;44.526;11.360;2022-12-29T06:53:25;124.68;;;52.35;;
9815;SDS011;4947;44.526;11.360;2022-12-29T06:55:53;124.15;;;49.00;;
9815;SDS011;4947;44.526;11.360;2022-12-29T06:58:23;124.82;;;47.60;;
9815;SDS011;4947;44.526;11.360;2022-12-29T07:00:51;116.60;;;48.28;;
9815;SDS011;4947;44.526;11.360;2022-12-29T07:03:18;127.50;;;50.47;;
9815;SDS011;4947;44.526;11.360;2022-12-29T07:05:46;146.07;;;50.80;;
9815;SDS011;4947;44.526;11.360;2022-12-29T07:08:14;130.25;;;49.97;;
9815;SDS011;4947;44.526;11.360;2022-12-29T07:10:42;136.32;;;53.53;;
9815;SDS011;4947;44.526;11.360;2022-12-29T07:13:09;137.90;;;51.05;;
9815;SDS011;4947;44.526;11.360;2022-12-29T07:15:39;142.00;;;53.25;;
9815;SDS011;4947;44.526;11.360;2022-12-29T07:18:06;122.88;;;49.95;;
9815;SDS011;4947;44.526;11.360;2022-12-29T07:20:34;134.35;;;52.47;;
9815;SDS011;4947;44.526;11.360;2022-12-29T07:23:01;126.78;;;49.17;;
9815;SDS011;4947;44.526;11.360;2022-12-29T07:25:29;134.82;;;50.42;;
9815;SDS011;4947;44.526;11.360;2022-12-29T07:27:56;144.25;;;52.78;;
9815;SDS011;4947;44.526;11.360;2022-12-29T07:30:24;126.05;;;47.75;;
9815;SDS011;4947;44.526;11.360;2022-12-29T07:32:53;115.20;;;49.38;;
9815;SDS011;4947;44.526;11.360;2022-12-29T07:35:21;136.07;;;50.60;;
9815;SDS011;4947;44.526;11.360;2022-12-29T07:37:48;139.13;;;50.38;;
9815;SDS011;4947;44.526;11.360;2022-12-29T07:40:15;126.65;;;49.42;;
9815;SDS011;4947;44.526;11.360;2022-12-29T07:42:43;127.88;;;50.72;;
9815;SDS011;4947;44.526;11.360;2022-12-29T07:45:10;127.13;;;49.28;;
9815;SDS011;4947;44.526;11.360;2022-12-29T07:47:38;131.70;;;51.10;;
9815;SDS011;4947;44.526;11.360;2022-12-29T07:50:07;126.13;;;48.92;;
9815;SDS011;4947;44.526;11.360;2022-12-29T07:52:36;121.30;;;46.28;;
9815;SDS011;4947;44.526;11.360;2022-12-29T07:55:03;118.53;;;48.88;;
9815;SDS011;4947;44.526;11.360;2022-12-29T07:57:31;130.75;;;48.33;;
9815;SDS011;4947;44.526;11.360;2022-12-29T07:59:59;114.50;;;46.03;;
9815;SDS011;4947;44.526;11.360;2022-12-29T08:02:26;112.25;;;46.90;;
9815;SDS011;4947;44.526;11.360;2022-12-29T08:04:54;112.82;;;43.90;;
9815;SDS011;4947;44.526;11.360;2022-12-29T08:07:23;117.70;;;46.33;;
9815;SDS011;4947;44.526;11.360;2022-12-29T08:09:51;112.63;;;45.63;;
9815;SDS011;4947;44.526;11.360;2022-12-29T08:12:18;110.53;;;42.03;;
9815;SDS011;4947;44.526;11.360;2022-12-29T08:14:46;118.70;;;43.05;;
9815;SDS011;4947;44.526;11.360;2022-12-29T08:17:13;104.82;;;41.55;;
9815;SDS011;4947;44.526;11.360;2022-12-29T08:19:40;118.07;;;42.08;;
9815;SDS011;4947;44.526;11.360;2022-12-29T08:22:08;108.90;;;40.95;;
9815;SDS011;4947;44.526;11.360;2022-12-29T08:24:37;110.78;;;43.45;;
9815;SDS011;4947;44.526;11.360;2022-12-29T08:27:05;115.38;;;44.38;;
9815;SDS011;4947;44.526;11.360;2022-12-29T08:29:37;111.13;;;43.00;;
9815;SDS011;4947;44.526;11.360;2022-12-29T08:32:05;119.95;;;43.90;;
9815;SDS011;4947;44.526;11.360;2022-12-29T08:34:33;113.05;;;42.40;;
9815;SDS011;4947;44.526;11.360;2022-12-29T08:37:00;109.35;;;41.05;;
9815;SDS011;4947;44.526;11.360;2022-12-29T08:39:28;122.60;;;43.75;;
9815;SDS011;4947;44.526;11.360;2022-12-29T08:41:56;111.10;;;40.83;;
9815;SDS011;4947;44.526;11.360;2022-12-29T08:44:24;114.95;;;41.33;;
9815;SDS011;4947;44.526;11.360;2022-12-29T08:46:51;117.43;;;41.13;;
9815;SDS011;4947;44.526;11.360;2022-12-29T08:49:18;108.18;;;41.17;;
9815;SDS011;4947;44.526;11.360;2022-12-29T08:51:46;115.90;;;44.60;;
9815;SDS011;4947;44.526;11.360;2022-12-29T08:54:13;107.45;;;41.92;;
9815;SDS011;4947;44.526;11.360;2022-12-29T08:56:40;119.93;;;42.80;;
9815;SDS011;4947;44.526;11.360;2022-12-29T08:59:09;109.43;;;41.40;;
9815;SDS011;4947;44.526;11.360;2022-12-29T09:01:37;114.07;;;41.40;;
9815;SDS011;4947;44.526;11.360;2022-12-29T09:04:05;117.28;;;39.70;;
9815;SDS011;4947;44.526;11.360;2022-12-29T09:06:39;117.40;;;40.17;;
9815;SDS011;4947;44.526;11.360;2022-12-29T09:09:06;102.72;;;36.88;;
9815;SDS011;4947;44.526;11.360;2022-12-29T09:11:34;105.97;;;38.22;;
9815;SDS011;4947;44.526;11.360;2022-12-29T09:14:02;108.78;;;37.53;;
9815;SDS011;4947;44.526;11.360;2022-12-29T09:16:31;114.85;;;37.28;;
9815;SDS011;4947;44.526;11.360;2022-12-29T09:18:58;114.25;;;36.33;;
9815;SDS011;4947;44.526;11.360;2022-12-29T09:21:26;122.55;;;38.03;;
9815;SDS011;4947;44.526;11.360;2022-12-29T09:23:54;116.82;;;36.78;;
9815;SDS011;4947;44.526;11.360;2022-12-29T09:26:21;101.20;;;34.70;;
9815;SDS011;4947;44.526;11.360;2022-12-29T09:28:49;112.43;;;35.95;;
9815;SDS011;4947;44.526;11.360;2022-12-29T09:31:16;110.47;;;37.60;;
9815;SDS011;4947;44.526;11.360;2022-12-29T09:33:45;118.18;;;37.90;;
9815;SDS011;4947;44.526;11.360;2022-12-29T09:36:13;127.28;;;37.17;;
9815;SDS011;4947;44.526;11.360;2022-12-29T09:38:40;112.35;;;38.05;;
9815;SDS011;4947;44.526;11.360;2022-12-29T09:41:10;110.03;;;36.78;;
9815;SDS011;4947;44.526;11.360;2022-12-29T09:43:45;116.00;;;37.92;;
9815;SDS011;4947;44.526;11.360;2022-12-29T09:46:23;111.68;;;38.13;;
9815;SDS011;4947;44.526;11.360;2022-12-29T09:49:04;118.97;;;38.95;;
9815;SDS011;4947;44.526;11.360;2022-12-29T09:51:43;108.20;;;36.38;;
9815;SDS011;4947;44.526;11.360;2022-12-29T09:54:19;106.25;;;35.28;;
9815;SDS011;4947;44.526;11.360;2022-12-29T09:56:53;111.50;;;35.38;;
9815;SDS011;4947;44.526;11.360;2022-12-29T09:59:23;109.28;;;36.55;;
9815;SDS011;4947;44.526;11.360;2022-12-29T10:01:59;105.13;;;37.10;;
9815;SDS011;4947;44.526;11.360;2022-12-29T10:04:40;110.40;;;35.58;;
9815;SDS011;4947;44.526;11.360;2022-12-29T10:07:10;110.85;;;36.60;;
9815;SDS011;4947;44.526;11.360;2022-12-29T10:09:45;108.93;;;36.20;;
9815;SDS011;4947;44.526;11.360;2022-12-29T10:12:23;94.65;;;34.13;;
9815;SDS011;4947;44.526;11.360;2022-12-29T10:14:58;100.20;;;34.55;;
9815;SDS011;4947;44.526;11.360;2022-12-29T10:17:33;98.18;;;34.80;;
9815;SDS011;4947;44.526;11.360;2022-12-29T10:20:19;105.80;;;33.60;;
9815;SDS011;4947;44.526;11.360;2022-12-29T10:23:08;95.88;;;33.33;;
9815;SDS011;4947;44.526;11.360;2022-12-29T10:25:46;109.68;;;34.25;;
9815;SDS011;4947;44.526;11.360;2022-12-29T10:28:15;95.38;;;33.63;;
9815;SDS011;4947;44.526;11.360;2022-12-29T10:30:46;104.20;;;33.95;;
9815;SDS011;4947;44.526;11.360;2022-12-29T10:33:15;87.30;;;32.95;;
9815;SDS011;4947;44.526;11.360;2022-12-29T10:35:47;93.22;;;33.45;;
9815;SDS011;4947;44.526;11.360;2022-12-29T10:38:20;107.40;;;32.88;;
9815;SDS011;4947;44.526;11.360;2022-12-29T10:40:53;88.68;;;33.72;;
9815;SDS011;4947;44.526;11.360;2022-12-29T10:43:33;108.72;;;33.80;;
9815;SDS011;4947;44.526;11.360;2022-12-29T10:46:06;83.43;;;31.58;;
9815;SDS011;4947;44.526;11.360;2022-12-29T10:48:39;88.75;;;32.00;;
9815;SDS011;4947;44.526;11.360;2022-12-29T10:51:15;96.88;;;32.25;;
9815;SDS011;4947;44.526;11.360;2022-12-29T10:53:49;87.95;;;31.80;;
9815;SDS011;4947;44.526;11.360;2022-12-29T10:56:21;87.88;;;30.35;;
9815;SDS011;4947;44.526;11.360;2022-12-29T10:58:56;88.97;;;33.03;;
9815;SDS011;4947;44.526;11.360;2022-12-29T11:01:30;83.28;;;29.85;;
9815;SDS011;4947;44.526;11.360;2022-12-29T11:04:07;117.22;;;42.65;;
9815;SDS011;4947;44.526;11.360;2022-12-29T11:06:53;82.68;;;31.58;;
9815;SDS011;4947;44.526;11.360;2022-12-29T11:09:22;96.80;;;39.80;;
9815;SDS011;4947;44.526;11.360;2022-12-29T11:11:54;81.07;;;31.13;;
9815;SDS011;4947;44.526;11.360;2022-12-29T11:14:26;73.07;;;29.88;;
9815;SDS011;4947;44.526;11.360;2022-12-29T11:16:57;83.15;;;32.35;;
9815;SDS011;4947;44.526;11.360;2022-12-29T11:19:27;81.50;;;30.83;;
9815;SDS011;4947;44.526;11.360;2022-12-29T11:21:57;70.22;;;29.42;;
9815;SDS011;4947;44.526;11.360;2022-12-29T11:24:43;81.05;;;28.63;;
9815;SDS011;4947;44.526;11.360;2022-12-29T11:27:14;81.32;;;28.05;;
9815;SDS011;4947;44.526;11.360;2022-12-29T11:29:44;78.60;;;29.83;;
9815;SDS011;4947;44.526;11.360;2022-12-29T11:32:12;72.55;;;28.73;;
9815;SDS011;4947;44.526;11.360;2022-12-29T11:34:44;70.53;;;31.05;;
9815;SDS011;4947;44.526;11.360;2022-12-29T11:37:14;78.88;;;32.08;;
9815;SDS011;4947;44.526;11.360;2022-12-29T11:39:45;76.45;;;30.42;;
9815;SDS011;4947;44.526;11.360;2022-12-29T11:42:19;90.28;;;31.58;;
9815;SDS011;4947;44.526;11.360;2022-12-29T11:44:49;69.63;;;30.35;;
9815;SDS011;4947;44.526;11.360;2022-12-29T11:47:22;73.38;;;28.90;;
9815;SDS011;4947;44.526;11.360;2022-12-29T11:49:55;76.43;;;30.38;;
9815;SDS011;4947;44.526;11.360;2022-12-29T11:52:28;71.20;;;30.88;;
9815;SDS011;4947;44.526;11.360;2022-12-29T11:55:00;74.85;;;30.23;;
9815;SDS011;4947;44.526;11.360;2022-12-29T11:57:29;77.75;;;29.70;;
9815;SDS011;4947;44.526;11.360;2022-12-29T12:00:00;69.55;;;30.25;;
9815;SDS011;4947;44.526;11.360;2022-12-29T12:02:33;69.05;;;29.13;;
9815;SDS011;4947;44.526;11.360;2022-12-29T12:05:12;74.35;;;30.58;;
9815;SDS011;4947;44.526;11.360;2022-12-29T12:07:45;71.78;;;31.08;;
9815;SDS011;4947;44.526;11.360;2022-12-29T12:10:18;68.07;;;29.42;;
9815;SDS011;4947;44.526;11.360;2022-12-29T12:12:51;72.78;;;30.20;;
9815;SDS011;4947;44.526;11.360;2022-12-29T12:15:27;69.10;;;29.92;;
9815;SDS011;4947;44.526;11.360;2022-12-29T12:18:02;73.28;;;27.67;;
9815;SDS011;4947;44.526;11.360;2022-12-29T12:20:36;71.75;;;28.42;;
9815;SDS011;4947;44.526;11.360;2022-12-29T12:23:16;71.68;;;28.38;;
9815;SDS011;4947;44.526;11.360;2022-12-29T12:25:54;67.88;;;29.27;;
9815;SDS011;4947;44.526;11.360;2022-12-29T12:28:28;66.80;;;28.10;;
9815;SDS011;4947;44.526;11.360;2022-12-29T12:31:04;62.67;;;26.75;;
9815;SDS011;4947;44.526;11.360;2022-12-29T12:33:41;67.40;;;27.10;;
9815;SDS011;4947;44.526;11.360;2022-12-29T12:36:19;64.40;;;25.83;;
9815;SDS011;4947;44.526;11.360;2022-12-29T12:38:58;66.88;;;29.13;;
9815;SDS011;4947;44.526;11.360;2022-12-29T12:41:37;77.60;;;28.90;;
9815;SDS011;4947;44.526;11.360;2022-12-29T12:44:13;64.97;;;26.35;;
9815;SDS011;4947;44.526;11.360;2022-12-29T12:47:04;69.22;;;28.92;;
9815;SDS011;4947;44.526;11.360;2022-12-29T12:50:02;61.40;;;25.85;;
9815;SDS011;4947;44.526;11.360;2022-12-29T12:52:52;63.05;;;26.35;;
9815;SDS011;4947;44.526;11.360;2022-12-29T12:55:55;62.85;;;24.75;;
9815;SDS011;4947;44.526;11.360;2022-12-29T12:58:35;66.97;;;27.20;;
9815;SDS011;4947;44.526;11.360;2022-12-29T13:01:11;64.90;;;27.98;;
9815;SDS011;4947;44.526;11.360;2022-12-29T13:03:52;69.95;;;25.98;;
9815;SDS011;4947;44.526;11.360;2022-12-29T13:06:34;59.67;;;26.50;;
9815;SDS011;4947;44.526;11.360;2022-12-29T13:09:16;67.82;;;25.95;;
9815;SDS011;4947;44.526;11.360;2022-12-29T13:12:16;68.00;;;27.38;;
9815;SDS011;4947;44.526;11.360;2022-12-29T13:15:12;61.22;;;25.55;;
9815;SDS011;4947;44.526;11.360;2022-12-29T13:17:48;68.97;;;26.83;;
9815;SDS011;4947;44.526;11.360;2022-12-29T13:20:24;64.95;;;27.77;;
9815;SDS011;4947;44.526;11.360;2022-12-29T13:22:59;63.65;;;25.10;;
9815;SDS011;4947;44.526;11.360;2022-12-29T13:25:34;63.85;;;25.15;;
9815;SDS011;4947;44.526;11.360;2022-12-29T13:28:13;61.75;;;25.48;;
9815;SDS011;4947;44.526;11.360;2022-12-29T13:30:48;59.03;;;25.75;;
9815;SDS011;4947;44.526;11.360;2022-12-29T13:33:22;60.50;;;26.73;;
9815;SDS011;4947;44.526;11.360;2022-12-29T13:35:57;71.32;;;27.17;;
9815;SDS011;4947;44.526;11.360;2022-12-29T13:38:29;60.78;;;26.55;;
9815;SDS011;4947;44.526;11.360;2022-12-29T13:41:01;63.47;;;28.45;;
9815;SDS011;4947;44.526;11.360;2022-12-29T13:43:34;65.40;;;28.00;;
9815;SDS011;4947;44.526;11.360;2022-12-29T13:46:07;70.15;;;28.45;;
9815;SDS011;4947;44.526;11.360;2022-12-29T13:48:44;69.15;;;28.42;;
9815;SDS011;4947;44.526;11.360;2022-12-29T13:51:16;71.47;;;27.88;;
9815;SDS011;4947;44.526;11.360;2022-12-29T13:53:54;61.22;;;27.80;;
9815;SDS011;4947;44.526;11.360;2022-12-29T13:56:31;64.35;;;27.13;;
9815;SDS011;4947;44.526;11.360;2022-12-29T13:59:09;60.85;;;25.67;;
9815;SDS011;4947;44.526;11.360;2022-12-29T14:01:43;66.45;;;28.67;;
9815;SDS011;4947;44.526;11.360;2022-12-29T14:04:23;53.95;;;25.65;;
9815;SDS011;4947;44.526;11.360;2022-12-29T14:07:02;53.03;;;25.08;;
9815;SDS011;4947;44.526;11.360;2022-12-29T14:09:41;56.83;;;26.42;;
9815;SDS011;4947;44.526;11.360;2022-12-29T14:12:27;54.90;;;24.98;;
9815;SDS011;4947;44.526;11.360;2022-12-29T14:15:04;60.72;;;25.17;;
9815;SDS011;4947;44.526;11.360;2022-12-29T14:17:33;55.10;;;25.20;;
9815;SDS011;4947;44.526;11.360;2022-12-29T14:20:01;64.88;;;26.42;;
9815;SDS011;4947;44.526;11.360;2022-12-29T14:22:29;76.20;;;34.08;;
9815;SDS011;4947;44.526;11.360;2022-12-29T14:24:57;59.25;;;26.42;;
9815;SDS011;4947;44.526;11.360;2022-12-29T14:27:44;66.35;;;27.00;;
9815;SDS011;4947;44.526;11.360;2022-12-29T14:33:27;62.38;;;25.17;;
9815;SDS011;4947;44.526;11.360;2022-12-29T14:38:59;65.32;;;25.45;;
9815;SDS011;4947;44.526;11.360;2022-12-29T14:41:28;62.78;;;27.05;;
9815;SDS011;4947;44.526;11.360;2022-12-29T14:44:00;64.55;;;28.38;;
9815;SDS011;4947;44.526;11.360;2022-12-29T14:46:43;61.13;;;23.90;;
9815;SDS011;4947;44.526;11.360;2022-12-29T14:49:16;54.85;;;23.92;;
9815;SDS011;4947;44.526;11.360;2022-12-29T14:51:46;58.08;;;24.10;;
9815;SDS011;4947;44.526;11.360;2022-12-29T14:57:10;54.58;;;24.50;;
9815;SDS011;4947;44.526;11.360;2022-12-29T14:59:46;59.13;;;25.60;;
9815;SDS011;4947;44.526;11.360;2022-12-29T15:02:19;63.25;;;27.30;;
9815;SDS011;4947;44.526;11.360;2022-12-29T15:04:49;74.00;;;32.95;;
9815;SDS011;4947;44.526;11.360;2022-12-29T15:07:19;67.78;;;30.67;;
9815;SDS011;4947;44.526;11.360;2022-12-29T15:09:50;61.30;;;28.35;;
9815;SDS011;4947;44.526;11.360;2022-12-29T15:12:26;71.47;;;33.50;;
9815;SDS011;4947;44.526;11.360;2022-12-29T15:15:10;57.53;;;27.98;;